createdAt,value
2023-01-29T00:00:12.071Z,26.50
2023-01-29T00:01:18.389Z,28.80
2023-01-29T00:02:20.896Z,24.80
2023-01-29T00:03:23.456Z,27.30
2023-01-29T00:04:26.482Z,28.00
2023-01-29T00:05:28.817Z,30.00
2023-01-29T00:06:31.621Z,25.60
2023-01-29T00:07:33.542Z,27.20
2023-01-29T00:08:36.268Z,30.00
2023-01-29T00:09:38.375Z,28.20
2023-01-29T00:10:41.405Z,26.90
2023-01-29T00:11:44.281Z,20.10
2023-01-29T00:12:46.554Z,26.82
2023-01-29T00:13:49.190Z,25.50
2023-01-29T00:14:52.235Z,26.00
2023-01-29T00:15:57.166Z,28.30
2023-01-29T00:16:59.889Z,27.10
2023-01-29T00:18:02.295Z,28.80
2023-01-29T00:19:04.758Z,29.00
2023-01-29T00:20:09.214Z,29.10
2023-01-29T00:21:15.168Z,35.00
2023-01-29T00:22:17.221Z,29.90
2023-01-29T00:23:20.069Z,30.30
2023-01-29T00:24:22.609Z,31.91
2023-01-29T00:25:24.917Z,32.80
2023-01-29T00:26:27.465Z,29.70
2023-01-29T00:27:29.559Z,28.80
2023-01-29T00:28:31.820Z,32.33
2023-01-29T00:29:33.944Z,34.00
2023-01-29T00:30:37.387Z,31.30
2023-01-29T00:31:39.723Z,31.00
2023-01-29T00:32:42.473Z,27.91
2023-01-29T00:33:45.285Z,29.30
2023-01-29T00:34:47.494Z,28.10
2023-01-29T00:35:51.579Z,27.20
2023-01-29T00:36:55.627Z,27.10
2023-01-29T00:37:59.598Z,30.30
2023-01-29T00:39:03.786Z,24.00
2023-01-29T00:40:07.035Z,25.70
2023-01-29T00:41:31.266Z,29.20
2023-01-29T00:42:52.886Z,26.00
2023-01-29T00:44:14.157Z,27.90
2023-01-29T00:45:16.763Z,24.70
2023-01-29T00:46:20.651Z,28.00
2023-01-29T00:47:35.109Z,27.70
2023-01-29T00:48:37.406Z,25.80
2023-01-29T00:49:39.331Z,28.30
2023-01-29T00:50:42.504Z,23.30
2023-01-29T00:51:46.570Z,24.00
2023-01-29T00:52:50.726Z,31.50
2023-01-29T00:53:54.889Z,29.10
2023-01-29T00:55:02.027Z,26.30
2023-01-29T00:56:05.162Z,28.60
2023-01-29T00:57:07.353Z,27.00
2023-01-29T00:58:09.271Z,24.11
2023-01-29T00:59:12.248Z,27.67
2023-01-29T01:00:18.941Z,25.30
2023-01-29T01:01:24.149Z,25.80
2023-01-29T01:02:45.684Z,24.70
2023-01-29T01:03:49.615Z,26.50
2023-01-29T01:04:51.607Z,25.30
2023-01-29T01:06:05.457Z,23.33
2023-01-29T01:07:09.331Z,27.10
2023-01-29T01:09:42.061Z,31.00
2023-01-29T01:10:44.399Z,28.30
2023-01-29T01:11:46.781Z,29.00
2023-01-29T01:12:58.314Z,30.90
2023-01-29T01:14:01.656Z,33.40
2023-01-29T01:15:04.814Z,30.70
2023-01-29T01:16:12.960Z,24.60
2023-01-29T01:17:15.870Z,30.50
2023-01-29T01:18:20.319Z,31.90
2023-01-29T01:19:22.548Z,30.10
2023-01-29T01:20:26.557Z,27.30
2023-01-29T01:21:29.190Z,29.80
2023-01-29T01:22:31.898Z,29.30
2023-01-29T01:23:34.419Z,26.30
2023-01-29T01:24:37.152Z,28.50
2023-01-29T01:25:40.584Z,29.00
2023-01-29T01:26:43.320Z,29.18
2023-01-29T01:27:46.331Z,32.00
2023-01-29T01:28:49.427Z,25.40
2023-01-29T01:29:51.724Z,32.60
2023-01-29T01:30:54.524Z,29.20
2023-01-29T01:31:56.970Z,26.10
2023-01-29T01:32:59.133Z,27.30
2023-01-29T01:34:01.349Z,27.30
2023-01-29T01:35:05.304Z,31.10
2023-01-29T01:36:13.095Z,25.10
2023-01-29T01:37:15.247Z,26.00
2023-01-29T01:38:17.244Z,27.40
2023-01-29T01:39:19.640Z,31.50
2023-01-29T01:40:23.653Z,31.70
2023-01-29T01:41:26.010Z,31.10
2023-01-29T01:42:32.391Z,36.00
2023-01-29T01:43:59.426Z,40.10
2023-01-29T01:45:07.265Z,39.90
2023-01-29T01:46:09.631Z,36.80
2023-01-29T01:47:12.346Z,34.10
2023-01-29T01:48:19.289Z,35.70
2023-01-29T01:49:23.593Z,36.60
2023-01-29T01:50:32.715Z,37.90
2023-01-29T01:51:38.495Z,39.70
2023-01-29T01:52:44.271Z,38.00
2023-01-29T01:53:53.227Z,37.80
2023-01-29T01:54:55.495Z,37.30
2023-01-29T01:56:01.252Z,37.50
2023-01-29T01:57:12.140Z,37.70
2023-01-29T01:58:18.017Z,37.00
2023-01-29T05:24:59.052Z,34.50
2023-01-29T05:26:01.510Z,24.50
2023-01-29T05:27:22.883Z,33.80
2023-01-29T05:28:25.179Z,29.20
2023-01-29T05:29:27.774Z,34.40
2023-01-29T05:30:35.362Z,27.00
2023-01-29T05:31:37.697Z,26.70
2023-01-29T05:32:39.918Z,32.36
2023-01-29T05:33:42.410Z,26.33
2023-01-29T05:34:44.559Z,27.60
2023-01-29T05:35:47.191Z,33.50
2023-01-29T05:36:50.063Z,35.30
2023-01-29T05:37:52.249Z,40.40
2023-01-29T05:38:54.694Z,40.20
2023-01-29T05:39:56.847Z,41.20
2023-01-29T05:40:59.494Z,22.70
2023-01-29T05:42:02.396Z,38.90
2023-01-29T05:43:06.384Z,41.50
2023-01-29T05:44:10.336Z,31.70
2023-01-29T05:45:13.232Z,39.40
2023-01-29T05:46:16.966Z,35.60
2023-01-29T05:47:20.479Z,37.50
2023-01-29T05:48:23.408Z,32.90
2023-01-29T05:49:25.937Z,38.82
2023-01-29T05:50:29.290Z,34.70
2023-01-29T05:51:31.760Z,32.70
2023-01-29T05:52:34.255Z,35.90
2023-01-29T05:53:37.127Z,35.30
2023-01-29T05:54:39.771Z,39.82
2023-01-29T05:55:46.886Z,39.90
2023-01-29T05:56:49.442Z,31.60
2023-01-29T05:57:51.930Z,38.10
2023-01-29T05:58:55.084Z,29.80
2023-01-29T06:00:00.219Z,35.50
2023-01-29T06:01:17.995Z,35.80
2023-01-29T06:02:20.858Z,37.30
2023-01-29T06:03:23.334Z,34.10
2023-01-29T06:04:25.821Z,30.50
2023-01-29T06:05:29.349Z,25.20
2023-01-29T06:06:31.991Z,34.40
2023-01-29T06:07:35.517Z,35.10
2023-01-29T06:08:38.314Z,34.90
2023-01-29T06:09:40.456Z,32.80
2023-01-29T06:10:42.612Z,30.40
2023-01-29T06:11:44.913Z,28.90
2023-01-29T06:12:47.266Z,16.44
2023-01-29T06:13:49.453Z,37.50
2023-01-29T06:14:51.568Z,30.00
2023-01-29T06:15:53.756Z,34.60
2023-01-29T06:16:56.609Z,35.90
2023-01-29T06:17:58.599Z,35.90
2023-01-29T06:19:01.656Z,38.22
2023-01-29T06:20:05.855Z,35.90
2023-01-29T06:21:11.372Z,33.50
2023-01-29T06:22:14.364Z,35.80
2023-01-29T06:23:16.639Z,36.10
2023-01-29T06:24:18.503Z,38.56
2023-01-29T06:25:20.679Z,39.40
2023-01-29T06:26:23.601Z,36.20
2023-01-29T06:27:25.761Z,37.40
2023-01-29T06:28:28.755Z,39.33
2023-01-29T06:29:31.918Z,38.91
2023-01-29T06:30:34.819Z,38.70
2023-01-29T06:31:39.109Z,38.70
2023-01-29T06:32:41.689Z,38.80
2023-01-29T06:33:44.236Z,38.80
2023-01-29T06:34:49.454Z,43.80
2023-01-29T06:36:00.169Z,48.00
2023-01-29T06:37:03.056Z,54.80
2023-01-29T06:38:04.971Z,52.20
2023-01-29T06:39:07.009Z,43.33
2023-01-29T06:40:11.747Z,48.40
2023-01-29T06:41:17.464Z,38.10
2023-01-29T06:42:21.148Z,36.90
2023-01-29T06:43:24.088Z,34.67
2023-01-29T06:44:26.499Z,32.70
2023-01-29T06:45:29.604Z,34.50
2023-01-29T06:46:31.908Z,31.00
2023-01-29T06:47:35.043Z,31.40
2023-01-29T06:48:37.090Z,24.50
2023-01-29T06:49:38.931Z,33.89
2023-01-29T06:50:40.913Z,31.00
2023-01-29T06:51:43.947Z,30.56
2023-01-29T06:52:46.916Z,26.73
2023-01-29T06:53:49.092Z,32.30
2023-01-29T06:54:53.419Z,29.60
2023-01-29T06:55:57.192Z,28.40
2023-01-29T06:57:00.381Z,34.50
2023-01-29T06:58:11.943Z,28.40
2023-01-29T06:59:14.403Z,30.60
2023-01-29T07:00:17.910Z,30.60
2023-01-29T07:01:35.207Z,32.00
2023-01-29T07:02:26.571Z,31.30
2023-01-29T07:03:33.364Z,28.30
2023-01-29T07:04:37.166Z,31.64
2023-01-29T07:05:39.956Z,25.30
2023-01-29T07:06:42.187Z,32.70
2023-01-29T07:07:44.412Z,27.10
2023-01-29T07:08:48.346Z,33.80
2023-01-29T07:09:50.623Z,30.70
2023-01-29T07:12:48.329Z,29.80
2023-01-29T07:13:56.622Z,30.20
2023-01-29T07:16:37.709Z,28.60
2023-01-29T07:17:40.011Z,31.60
2023-01-29T07:18:42.181Z,28.30
2023-01-29T07:19:44.765Z,29.90
2023-01-29T07:20:49.685Z,26.00
2023-01-29T07:21:51.883Z,27.40
2023-01-29T07:22:57.047Z,29.30
2023-01-29T07:23:59.830Z,31.90
2023-01-29T07:25:02.211Z,29.82
2023-01-29T07:26:06.940Z,26.20
2023-01-29T07:27:10.064Z,30.20
2023-01-29T07:28:12.734Z,29.18
2023-01-29T07:29:15.540Z,28.09
2023-01-29T07:30:19.456Z,62.90
2023-01-29T07:31:22.362Z,32.10
2023-01-29T07:32:24.653Z,41.82
2023-01-29T07:33:26.848Z,36.70
2023-01-29T07:34:29.319Z,30.11
2023-01-29T07:35:32.166Z,34.40
2023-01-29T07:36:36.470Z,31.45
2023-01-29T07:37:38.755Z,25.50
2023-01-29T07:38:42.042Z,31.30
2023-01-29T07:39:46.003Z,31.40
2023-01-29T07:40:49.867Z,36.30
2023-01-29T07:41:52.544Z,47.70
2023-01-29T07:43:00.462Z,43.70
2023-01-29T07:44:03.878Z,38.10
2023-01-29T07:45:07.923Z,37.80
2023-01-29T07:46:11.135Z,33.80
2023-01-29T07:47:15.730Z,34.00
2023-01-29T07:48:19.672Z,38.90
2023-01-29T07:49:21.659Z,35.30
2023-01-29T07:50:25.668Z,25.20
2023-01-29T07:51:28.243Z,34.10
2023-01-29T07:52:31.576Z,33.10
2023-01-29T07:53:34.941Z,33.90
2023-01-29T07:54:36.926Z,22.80
2023-01-29T07:55:39.044Z,21.89
2023-01-29T07:56:41.284Z,30.60
2023-01-29T07:57:43.823Z,35.11
2023-01-29T07:58:46.612Z,34.20
2023-01-29T07:59:48.817Z,35.20
2023-01-29T08:00:51.181Z,31.40
2023-01-29T08:01:53.364Z,32.10
2023-01-29T08:03:04.287Z,34.70
2023-01-29T08:04:06.653Z,36.50
2023-01-29T08:05:10.240Z,39.20
2023-01-29T08:06:12.713Z,37.40
2023-01-29T08:07:15.997Z,38.20
2023-01-29T08:08:19.882Z,31.90
2023-01-29T08:09:21.921Z,31.00
2023-01-29T08:10:24.480Z,29.00
2023-01-29T08:11:26.397Z,36.80
2023-01-29T08:12:28.423Z,24.44
2023-01-29T08:13:30.874Z,31.44
2023-01-29T08:14:32.965Z,36.40
2023-01-29T08:16:40.593Z,38.90
2023-01-29T08:17:56.077Z,35.60
2023-01-29T08:18:48.369Z,38.60
2023-01-29T08:19:50.724Z,38.60
2023-01-29T08:20:53.021Z,37.20
2023-01-29T08:21:55.112Z,34.80
2023-01-29T08:23:07.167Z,35.40
2023-01-29T08:24:09.525Z,31.50
2023-01-29T08:25:12.542Z,29.50
2023-01-29T08:26:14.948Z,33.64
2023-01-29T08:27:17.684Z,32.60
2023-01-29T08:28:20.244Z,36.36
2023-01-29T08:29:22.367Z,33.30
2023-01-29T08:30:27.597Z,26.30
2023-01-29T08:31:30.005Z,30.50
2023-01-29T08:32:32.241Z,36.80
2023-01-29T08:33:39.458Z,34.20
2023-01-29T08:34:39.546Z,36.30
2023-01-29T08:35:42.344Z,34.80
2023-01-29T08:36:44.519Z,32.30
2023-01-29T08:37:58.829Z,35.30
2023-01-29T08:39:01.891Z,32.10
2023-01-29T08:40:08.954Z,36.10
2023-01-29T08:41:12.484Z,36.40
2023-01-29T08:42:15.219Z,37.00
2023-01-29T08:43:17.719Z,35.40
2023-01-29T08:44:20.234Z,24.60
2023-01-29T08:45:22.897Z,32.10
2023-01-29T08:46:25.467Z,31.90
2023-01-29T08:47:28.733Z,24.80
2023-01-29T08:48:34.907Z,25.70
2023-01-29T08:49:36.900Z,35.90
2023-01-29T08:50:39.537Z,31.10
2023-01-29T08:51:41.605Z,33.10
2023-01-29T08:52:44.644Z,31.11
2023-01-29T08:53:47.119Z,30.60
2023-01-29T08:54:49.265Z,34.40
2023-01-29T08:55:52.116Z,33.10
2023-01-29T08:56:54.921Z,30.80
2023-01-29T08:57:58.223Z,27.70
2023-01-29T08:59:00.408Z,30.00
2023-01-29T09:00:03.873Z,32.50
2023-01-29T09:01:11.461Z,35.80
2023-01-29T09:02:13.703Z,36.80
2023-01-29T09:03:16.059Z,29.60
2023-01-29T09:04:18.175Z,35.40
2023-01-29T09:05:20.629Z,35.22
2023-01-29T09:06:22.875Z,35.50
2023-01-29T09:07:25.115Z,34.10
2023-01-29T09:08:27.582Z,33.20
2023-01-29T09:09:29.567Z,31.50
2023-01-29T09:10:31.737Z,32.11
2023-01-29T09:11:33.983Z,32.40
2023-01-29T09:12:36.242Z,31.10
2023-01-29T09:13:38.241Z,31.20
2023-01-29T09:14:40.236Z,38.11
2023-01-29T09:15:42.423Z,26.10
2023-01-29T09:16:44.546Z,30.70
2023-01-29T09:17:48.671Z,37.44
2023-01-29T09:18:52.891Z,33.60
2023-01-29T09:19:55.107Z,29.90
2023-01-29T09:20:58.123Z,27.60
2023-01-29T09:22:00.275Z,35.55
2023-01-29T09:23:06.983Z,37.22
2023-01-29T09:24:10.865Z,30.70
2023-01-29T09:25:13.560Z,31.80
2023-01-29T09:26:16.325Z,29.45
2023-01-29T09:27:18.433Z,32.20
2023-01-29T09:28:20.814Z,36.30
2023-01-29T09:29:22.898Z,30.50
2023-01-29T09:30:26.079Z,37.70
2023-01-29T09:31:29.830Z,36.90
2023-01-29T09:33:38.224Z,29.20
2023-01-29T09:34:40.753Z,30.00
2023-01-29T09:35:46.283Z,22.60
2023-01-29T09:36:48.567Z,34.60
2023-01-29T09:37:52.044Z,40.56
2023-01-29T09:38:54.980Z,36.50
2023-01-29T09:39:56.959Z,29.10
2023-01-29T09:41:24.467Z,35.60
2023-01-29T09:42:30.247Z,34.80
2023-01-29T09:43:42.042Z,40.20
2023-01-29T09:44:56.389Z,36.80
2023-01-29T09:46:03.430Z,37.40
2023-01-29T09:47:09.812Z,36.60
2023-01-29T09:48:13.060Z,37.40
2023-01-29T09:49:28.533Z,35.70
2023-01-29T09:50:38.152Z,35.20
2023-01-29T09:51:43.018Z,33.70
2023-01-29T09:53:04.634Z,36.10
2023-01-29T09:54:28.161Z,31.50
2023-01-29T09:56:51.722Z,33.90
2023-01-29T14:10:33.407Z,26.90
2023-01-29T14:11:36.147Z,23.10
2023-01-29T14:12:43.018Z,25.27
2023-01-29T14:13:49.358Z,22.60
2023-01-29T14:14:58.905Z,23.60
2023-01-29T14:16:04.821Z,27.40
2023-01-29T14:17:07.478Z,22.70
2023-01-29T14:18:26.044Z,24.90
2023-01-29T14:19:28.804Z,29.80
2023-01-29T14:20:46.326Z,20.20
2023-01-29T14:21:49.718Z,25.20
2023-01-29T14:22:55.573Z,27.30
2023-01-29T14:24:18.942Z,24.20
2023-01-29T14:25:24.763Z,26.60
2023-01-29T14:26:41.588Z,15.00
2023-01-29T14:27:48.602Z,19.20
2023-01-29T14:29:04.406Z,24.50
2023-01-29T14:30:11.005Z,24.90
2023-01-29T14:31:14.146Z,29.60
2023-01-29T14:32:25.264Z,26.50
2023-01-29T14:33:41.014Z,23.30
2023-01-29T14:34:53.617Z,25.90
2023-01-29T14:35:58.503Z,27.40
2023-01-29T14:37:27.505Z,27.90
2023-01-29T14:38:31.479Z,24.30
2023-01-29T14:39:41.692Z,31.40
2023-01-29T14:40:46.635Z,25.90
2023-01-29T14:41:52.510Z,23.80
2023-01-29T14:43:21.319Z,24.20
2023-01-29T14:44:47.550Z,25.30
2023-01-29T14:45:51.209Z,27.00
2023-01-29T14:46:54.411Z,19.80
2023-01-29T14:48:12.893Z,24.90
2023-01-29T14:49:18.808Z,27.90
2023-01-29T14:50:34.473Z,25.60
2023-01-29T14:51:40.892Z,26.60
2023-01-29T14:52:44.256Z,24.50
2023-01-29T14:54:26.460Z,26.20
2023-01-29T14:55:41.077Z,26.40
2023-01-29T14:56:55.538Z,25.30
2023-01-29T14:57:59.687Z,23.70
2023-01-29T14:59:22.422Z,24.70
2023-01-29T15:00:37.823Z,25.60
2023-01-29T15:01:43.756Z,24.10
2023-01-29T15:02:47.376Z,25.30
2023-01-29T15:03:53.475Z,24.30
2023-01-29T15:04:59.445Z,26.90
2023-01-29T15:06:02.485Z,22.50
2023-01-29T15:07:11.079Z,25.27
2023-01-29T15:08:20.244Z,25.40
2023-01-29T15:09:36.368Z,22.40
2023-01-29T15:10:47.821Z,18.00
2023-01-29T15:11:59.620Z,26.10
2023-01-29T15:13:21.518Z,24.70
2023-01-29T15:14:33.854Z,25.10
2023-01-29T15:15:59.130Z,25.60
2023-01-29T15:17:22.408Z,22.80
2023-01-29T15:18:44.629Z,25.80
2023-01-29T15:19:48.320Z,25.90
2023-01-29T15:20:54.161Z,24.90
2023-01-29T15:23:32.436Z,22.60
2023-01-29T15:24:37.331Z,23.60
2023-01-29T15:25:49.084Z,22.80
2023-01-29T15:26:51.828Z,21.70
2023-01-29T15:27:56.355Z,23.50
2023-01-29T15:29:04.733Z,19.00
2023-01-29T15:30:17.676Z,21.70
2023-01-29T15:31:20.676Z,19.10
2023-01-29T15:33:43.948Z,26.60
2023-01-29T15:34:48.006Z,24.30
2023-01-29T15:36:07.438Z,24.90
2023-01-29T15:37:03.719Z,23.20
2023-01-29T15:38:18.556Z,26.40
2023-01-29T15:39:23.799Z,24.80
2023-01-29T15:40:29.274Z,21.00
2023-01-29T15:41:31.704Z,23.60
2023-01-29T15:42:49.062Z,23.40
2023-01-29T15:44:00.382Z,25.50
2023-01-29T15:45:12.821Z,26.80
2023-01-29T15:46:31.342Z,24.00
2023-01-29T15:47:37.032Z,21.80
2023-01-29T15:48:45.636Z,29.10
2023-01-29T15:49:53.404Z,25.70
2023-01-29T15:51:04.346Z,24.70
2023-01-29T15:52:11.161Z,26.00
2023-01-29T15:53:19.738Z,29.40
2023-01-29T15:54:22.128Z,21.60
2023-01-29T15:55:27.522Z,25.20
2023-01-29T15:56:37.067Z,27.10
2023-01-29T15:57:42.294Z,23.40
2023-01-29T15:58:51.017Z,22.40
2023-01-29T15:59:57.609Z,27.40
2023-01-29T16:01:01.484Z,24.00
2023-01-29T16:02:23.287Z,24.20
2023-01-29T16:03:29.411Z,30.50
2023-01-29T16:04:32.287Z,27.60
2023-01-29T16:05:38.915Z,25.40
2023-01-29T16:06:43.770Z,26.70
2023-01-29T16:07:47.358Z,23.40
2023-01-29T16:08:53.575Z,29.80
2023-01-29T16:09:58.118Z,27.90
2023-01-29T16:11:03.351Z,21.10
2023-01-29T16:12:06.809Z,33.30
2023-01-29T16:13:12.650Z,32.40
2023-01-29T16:14:20.442Z,28.40
2023-01-29T16:15:37.832Z,34.20
2023-01-29T16:16:43.086Z,34.00
2023-01-29T16:17:46.718Z,33.20
2023-01-29T16:19:00.011Z,22.60
2023-01-29T16:20:00.330Z,19.00
2023-01-29T16:21:12.306Z,20.20
2023-01-29T16:22:15.612Z,28.90
2023-01-29T16:23:27.765Z,27.00
2023-01-29T16:24:34.390Z,30.60
2023-01-29T16:25:38.740Z,26.50
2023-01-29T16:26:47.480Z,21.00
2023-01-29T16:27:51.991Z,31.10
2023-01-29T16:28:55.600Z,28.60
2023-01-29T16:29:58.448Z,28.30
2023-01-29T16:31:04.307Z,25.91
2023-01-29T16:32:08.306Z,22.90
2023-01-29T16:33:17.632Z,29.90
2023-01-29T16:34:26.425Z,17.50
2023-01-29T16:35:29.652Z,23.10
2023-01-29T16:36:32.981Z,26.20
2023-01-29T16:37:37.344Z,27.45
2023-01-29T16:38:41.875Z,24.40
2023-01-29T16:39:47.794Z,26.70
2023-01-29T16:41:17.573Z,21.60
2023-01-29T16:42:28.543Z,29.40
2023-01-29T16:43:42.480Z,24.70
2023-01-29T16:44:53.874Z,20.30
2023-01-29T16:46:05.088Z,27.90
2023-01-29T16:47:17.883Z,24.00
2023-01-29T16:48:30.361Z,32.20
2023-01-29T16:49:36.456Z,19.50
2023-01-29T16:50:53.917Z,24.70
2023-01-29T16:51:43.894Z,24.00
2023-01-29T16:52:58.836Z,24.20
2023-01-29T16:54:15.564Z,32.30
2023-01-29T16:55:23.809Z,17.50
2023-01-29T16:56:29.863Z,26.70
2023-01-29T16:57:33.982Z,23.50
2023-01-29T16:58:36.518Z,23.30
2023-01-29T16:59:41.174Z,21.20
2023-01-29T17:00:46.969Z,16.60
2023-01-29T17:01:49.691Z,17.20
2023-01-29T17:03:05.479Z,18.30
2023-01-29T17:04:17.490Z,23.90
2023-01-29T17:05:29.040Z,23.60
2023-01-29T17:06:32.712Z,25.80
2023-01-29T17:07:37.325Z,25.90
2023-01-29T17:08:43.398Z,31.20
2023-01-29T17:09:51.490Z,25.00
2023-01-29T17:10:53.875Z,23.20
2023-01-29T17:11:59.128Z,26.90
2023-01-29T17:13:07.672Z,22.10
2023-01-29T17:14:13.370Z,17.10
2023-01-29T17:15:34.014Z,16.50
2023-01-29T17:16:40.031Z,18.80
2023-01-29T17:18:54.905Z,23.00
2023-01-29T17:19:58.498Z,19.50
2023-01-29T17:21:00.543Z,18.80
2023-01-29T17:22:04.825Z,21.80
2023-01-29T17:23:07.600Z,16.30
2023-01-29T17:24:09.721Z,14.90
2023-01-29T17:25:16.461Z,19.00
2023-01-29T17:26:19.839Z,20.60
2023-01-29T17:27:22.676Z,18.70
2023-01-29T17:28:25.779Z,20.10
2023-01-29T17:29:31.346Z,15.70
2023-01-29T17:30:37.111Z,15.50
2023-01-29T17:31:39.252Z,12.30
2023-01-29T17:32:43.890Z,15.20
2023-01-29T17:33:45.585Z,17.30
2023-01-29T17:34:48.552Z,14.27
2023-01-29T17:35:51.636Z,15.00
2023-01-29T17:36:53.924Z,18.30
2023-01-29T17:37:55.919Z,18.20
2023-01-29T17:38:58.999Z,20.40
2023-01-29T17:40:02.346Z,16.50
2023-01-29T17:42:28.177Z,14.40
2023-01-29T17:43:30.672Z,15.00
2023-01-29T17:44:33.830Z,13.90
2023-01-29T17:45:35.834Z,15.10
2023-01-29T17:46:38.912Z,13.90
2023-01-29T17:47:40.954Z,10.36
2023-01-29T17:48:44.119Z,14.40
2023-01-29T17:49:46.141Z,15.00
2023-01-29T17:50:53.659Z,12.40
2023-01-29T17:51:57.177Z,16.00
2023-01-29T17:52:59.708Z,6.90
2023-01-29T17:54:02.621Z,14.20
2023-01-29T17:55:06.725Z,15.00
2023-01-29T17:56:15.705Z,17.00
2023-01-29T21:40:42.380Z,14.60
2023-01-29T21:42:09.522Z,10.90
2023-01-29T21:43:12.923Z,12.10
2023-01-29T21:44:16.354Z,12.00
2023-01-29T21:45:19.215Z,11.50
2023-01-29T21:46:22.488Z,12.73
2023-01-29T21:47:24.845Z,9.60
2023-01-29T21:48:27.296Z,8.80
2023-01-29T21:49:29.698Z,12.70
2023-01-29T21:50:33.215Z,10.80
2023-01-29T21:51:35.398Z,9.30
2023-01-29T21:52:37.634Z,11.90
2023-01-29T21:53:40.128Z,13.00
2023-01-29T21:54:46.346Z,4.60
2023-01-29T21:55:48.651Z,14.10
2023-01-29T21:56:50.925Z,16.20
2023-01-29T21:57:53.899Z,14.10
2023-01-29T21:58:57.856Z,15.10
2023-01-29T22:00:00.698Z,12.40
2023-01-29T22:01:18.420Z,10.80
2023-01-29T22:02:11.426Z,14.80
2023-01-29T22:03:14.236Z,11.70
2023-01-29T22:04:17.893Z,15.30
2023-01-29T22:05:20.519Z,16.60
2023-01-29T22:06:22.750Z,12.00
2023-01-29T22:07:24.908Z,12.60
2023-01-29T22:08:27.694Z,10.20
2023-01-29T22:09:29.833Z,10.70
2023-01-29T22:10:33.545Z,11.40
2023-01-29T22:11:35.936Z,9.30
2023-01-29T22:12:37.940Z,8.40
2023-01-29T22:13:40.703Z,12.20
2023-01-29T22:14:42.928Z,7.60
2023-01-29T22:15:45.149Z,12.80
2023-01-29T22:16:47.725Z,12.40
2023-01-29T22:17:49.779Z,11.40
2023-01-29T22:18:52.445Z,8.00
2023-01-29T22:19:55.078Z,15.70
2023-01-29T22:20:59.113Z,13.20
2023-01-29T22:22:01.376Z,13.10
2023-01-29T22:23:04.232Z,12.70
2023-01-29T22:24:06.964Z,10.70
2023-01-29T22:25:10.225Z,5.80
2023-01-29T22:26:12.470Z,12.40
2023-01-29T22:27:15.205Z,14.00
2023-01-29T22:28:18.569Z,16.20
2023-01-29T22:29:21.987Z,17.70
2023-01-29T22:30:25.748Z,3.60
2023-01-29T22:31:28.233Z,14.00
2023-01-29T22:32:32.345Z,8.64
2023-01-29T22:33:35.094Z,13.00
2023-01-29T22:34:38.346Z,9.50
2023-01-29T22:35:40.335Z,13.50
2023-01-29T22:36:43.093Z,13.70
2023-01-29T22:37:45.387Z,11.30
2023-01-29T22:38:47.298Z,9.50
2023-01-29T22:39:49.535Z,13.70
2023-01-29T22:40:54.225Z,11.80
2023-01-29T22:41:56.875Z,16.80
2023-01-29T22:42:59.067Z,11.00
2023-01-29T22:44:01.868Z,14.00
2023-01-29T22:45:05.415Z,14.00
2023-01-29T22:46:08.517Z,14.30
2023-01-29T22:47:11.437Z,14.30
2023-01-29T22:48:13.749Z,12.10
2023-01-29T22:49:15.979Z,13.50
2023-01-29T22:50:18.730Z,15.00
2023-01-29T22:51:21.018Z,11.90
2023-01-29T22:52:23.073Z,13.22
2023-01-29T22:53:25.497Z,11.00
2023-01-29T22:54:27.605Z,9.10
2023-01-29T22:55:33.265Z,6.70
2023-01-29T22:56:35.460Z,13.90
2023-01-29T22:57:38.675Z,9.30
2023-01-29T22:58:40.914Z,10.40
2023-01-29T22:59:42.906Z,10.80
2023-01-29T23:00:50.581Z,8.70
2023-01-29T23:01:52.657Z,12.20
2023-01-29T23:02:54.700Z,11.20
2023-01-29T23:03:58.263Z,10.78
2023-01-29T23:05:00.793Z,13.50
2023-01-29T23:06:03.515Z,8.30
2023-01-29T23:07:05.610Z,11.80
2023-01-29T23:08:07.646Z,10.00
2023-01-29T23:09:10.240Z,6.30
2023-01-29T23:10:17.154Z,10.70
2023-01-29T23:11:22.984Z,6.60
2023-01-29T23:12:26.322Z,9.50
2023-01-29T23:13:29.566Z,10.80
2023-01-29T23:14:32.645Z,6.80
2023-01-29T23:15:34.940Z,12.30
2023-01-29T23:16:37.155Z,14.80
2023-01-29T23:17:39.206Z,16.00
2023-01-29T23:18:41.960Z,24.60
2023-01-29T23:19:43.989Z,24.00
2023-01-29T23:20:46.226Z,20.00
2023-01-29T23:21:48.282Z,20.11
2023-01-29T23:22:50.630Z,20.22
2023-01-29T23:23:55.813Z,24.00
2023-01-29T23:24:58.190Z,14.80
2023-01-29T23:26:20.117Z,9.50
2023-01-29T23:27:22.662Z,10.60
2023-01-29T23:28:24.686Z,16.80
2023-01-29T23:29:27.020Z,16.50
2023-01-29T23:30:30.364Z,14.10
2023-01-29T23:31:32.923Z,14.60
2023-01-29T23:32:35.251Z,13.50
2023-01-29T23:33:39.037Z,13.70
2023-01-29T23:34:41.369Z,15.30
2023-01-29T23:35:43.410Z,13.60
2023-01-29T23:36:46.121Z,11.60
2023-01-29T23:37:48.283Z,16.70
2023-01-29T23:38:50.473Z,17.10
2023-01-29T23:39:52.621Z,12.90
2023-01-29T23:40:58.297Z,13.80
2023-01-29T23:42:01.168Z,12.00
2023-01-29T23:43:03.365Z,8.36
2023-01-29T23:44:05.650Z,15.70
2023-01-29T23:45:08.727Z,12.30
2023-01-29T23:46:11.105Z,14.00
2023-01-29T23:47:13.429Z,8.80
2023-01-29T23:48:15.568Z,12.20
2023-01-29T23:49:18.193Z,9.30
2023-01-29T23:50:20.537Z,12.60
2023-01-29T23:51:22.842Z,10.70
2023-01-29T23:52:25.069Z,14.00
2023-01-29T23:53:27.402Z,12.70
2023-01-29T23:54:29.403Z,10.40
2023-01-29T23:55:31.689Z,10.50
2023-01-29T23:56:34.030Z,14.90
2023-01-29T23:57:36.319Z,11.10
2023-01-29T23:58:38.608Z,13.60
2023-01-29T23:59:41.143Z,12.40
